Time;durP1;ratioP1;P1;durP2;ratioP2;P2;SDS_P1;SDS_P2;PMS_P1;PMS_P2;Temp;Humidity;BMP_temperature;BMP_pressure;BME280_temperature;BME280_humidity;BME280_pressure;Samples;Min_cycle;Max_cycle;Signal;HPM_P1;HPM_P2
2021/09/15 00:00:53;;;;;;;30.10;22.55;;;18.50;99.90;;;;;;4896096;29;20052;-81
2021/09/15 00:03:19;;;;;;;27.42;23.50;;;18.50;99.90;;;;;;4893755;29;20213;-82
2021/09/15 00:05:45;;;;;;;29.00;22.92;;;18.40;99.90;;;;;;4893483;29;20036;-82
2021/09/15 00:08:11;;;;;;;30.40;23.73;;;18.40;99.90;;;;;;4897449;29;20055;-83
2021/09/15 00:10:37;;;;;;;31.27;24.60;;;18.50;99.90;;;;;;4895199;29;20095;-80
2021/09/15 00:13:03;;;;;;;29.02;24.38;;;18.40;99.90;;;;;;4879109;29;20052;-82
2021/09/15 00:15:29;;;;;;;31.23;23.90;;;18.40;99.90;;;;;;4896550;29;20506;-82
2021/09/15 00:17:54;;;;;;;30.15;24.52;;;18.40;99.90;;;;;;4897848;29;20048;-83
2021/09/15 00:20:20;;;;;;;28.40;23.65;;;18.40;99.90;;;;;;4897590;29;20535;-81
2021/09/15 00:22:46;;;;;;;29.73;23.60;;;18.30;99.90;;;;;;4882659;29;20497;-82
2021/09/15 00:25:11;;;;;;;31.20;24.63;;;18.30;99.90;;;;;;4878172;29;20106;-83
2021/09/15 00:27:37;;;;;;;29.77;24.17;;;18.30;99.90;;;;;;4892106;29;20040;-82
2021/09/15 00:30:04;;;;;;;31.70;24.77;;;18.20;99.90;;;;;;4876173;29;20488;-83
2021/09/15 00:32:29;;;;;;;32.63;24.63;;;18.20;99.90;;;;;;4896032;29;20472;-83
2021/09/15 00:34:55;;;;;;;32.40;24.58;;;18.20;99.90;;;;;;4896640;29;20127;-82
2021/09/15 00:37:21;;;;;;;27.70;23.90;;;18.10;99.90;;;;;;4882709;29;20074;-81
2021/09/15 00:39:46;;;;;;;32.50;24.23;;;18.20;99.90;;;;;;4896921;29;20037;-82
2021/09/15 00:42:12;;;;;;;32.17;25.15;;;18.10;99.90;;;;;;4894634;29;20175;-84
2021/09/15 00:44:38;;;;;;;32.72;25.23;;;18.20;99.90;;;;;;4896136;29;20047;-81
2021/09/15 00:47:03;;;;;;;27.38;24.33;;;18.20;99.90;;;;;;4881808;29;20126;-79
2021/09/15 00:49:29;;;;;;;28.95;24.20;;;18.10;99.90;;;;;;4897636;29;20044;-79
2021/09/15 00:51:55;;;;;;;34.38;24.52;;;18.10;99.90;;;;;;4893924;29;20048;-82
2021/09/15 00:54:21;;;;;;;31.52;25.42;;;18.10;99.90;;;;;;4893742;29;20043;-81
2021/09/15 00:56:48;;;;;;;33.83;25.42;;;18.10;99.90;;;;;;4881039;29;20044;-83
2021/09/15 00:59:14;;;;;;;33.58;26.30;;;18.10;99.90;;;;;;4893041;29;20451;-81
2021/09/15 01:01:40;;;;;;;30.17;24.63;;;18.10;99.90;;;;;;4877752;29;20044;-82
2021/09/15 01:04:06;;;;;;;32.80;26.10;;;18.10;99.90;;;;;;4907123;29;20356;-81
2021/09/15 01:06:35;;;;;;;31.95;26.27;;;18.10;99.90;;;;;;4892890;29;20044;-81
2021/09/15 01:09:04;;;;;;;30.98;26.58;;;18.10;99.90;;;;;;4877978;29;20127;-80
2021/09/15 01:11:33;;;;;;;34.53;26.02;;;18.10;99.90;;;;;;4910914;29;20468;-81
2021/09/15 01:13:59;;;;;;;31.30;26.27;;;18.10;99.90;;;;;;4895134;29;20115;-84
2021/09/15 01:16:25;;;;;;;35.05;25.75;;;18.10;99.90;;;;;;4895571;29;20191;-83
2021/09/15 01:18:50;;;;;;;33.50;26.23;;;18.10;99.90;;;;;;4877647;29;20043;-80
2021/09/15 01:21:16;;;;;;;32.30;25.77;;;18.10;99.90;;;;;;4896625;29;20052;-82
2021/09/15 01:23:42;;;;;;;32.30;26.35;;;18.10;99.90;;;;;;4880235;29;20056;-84
2021/09/15 01:26:07;;;;;;;35.75;25.80;;;18.10;99.90;;;;;;4896442;29;20060;-81
2021/09/15 01:28:33;;;;;;;31.17;26.40;;;18.00;99.90;;;;;;4880009;29;20468;-83
2021/09/15 01:30:59;;;;;;;31.77;26.15;;;18.00;99.90;;;;;;4880414;29;20421;-83
2021/09/15 01:33:25;;;;;;;35.40;27.52;;;18.00;99.90;;;;;;4895924;29;20036;-80
2021/09/15 01:35:51;;;;;;;34.70;27.58;;;18.00;99.90;;;;;;4880459;29;20091;-83
2021/09/15 01:38:17;;;;;;;30.33;26.23;;;18.00;99.90;;;;;;4896196;29;20052;-84
2021/09/15 01:40:43;;;;;;;31.65;26.15;;;18.00;99.90;;;;;;4896273;29;20044;-81
2021/09/15 01:43:09;;;;;;;35.15;27.33;;;18.00;99.90;;;;;;4876577;29;20059;-81
2021/09/15 01:45:35;;;;;;;33.70;26.30;;;18.00;99.90;;;;;;4896072;29;20066;-82
2021/09/15 01:48:00;;;;;;;33.28;27.65;;;18.00;99.90;;;;;;4896277;29;20131;-80
2021/09/15 01:50:26;;;;;;;41.45;28.40;;;18.00;99.90;;;;;;4896249;29;20459;-81
2021/09/15 01:52:51;;;;;;;34.47;27.52;;;18.00;99.90;;;;;;4878680;29;21963;-82
2021/09/15 01:55:21;;;;;;;33.92;28.30;;;17.90;99.90;;;;;;4896283;29;20392;-80
2021/09/15 01:57:47;;;;;;;35.78;27.60;;;17.90;99.90;;;;;;4893960;29;20090;-81
2021/09/15 02:00:13;;;;;;;32.40;27.77;;;17.90;99.90;;;;;;4895802;29;20060;-82
2021/09/15 02:02:39;;;;;;;36.95;27.98;;;17.90;99.90;;;;;;4893726;29;20127;-82
2021/09/15 02:05:05;;;;;;;35.20;28.50;;;17.90;99.90;;;;;;4895582;29;20445;-80
2021/09/15 02:07:31;;;;;;;39.22;27.70;;;17.90;99.90;;;;;;4913344;29;20055;-83
2021/09/15 02:09:56;;;;;;;31.85;27.65;;;17.90;99.90;;;;;;4895291;29;20334;-82
2021/09/15 02:12:22;;;;;;;34.92;27.38;;;17.90;99.90;;;;;;4895402;29;20068;-83
2021/09/15 02:14:48;;;;;;;36.55;28.40;;;17.80;99.90;;;;;;4880897;29;20390;-84
2021/09/15 02:17:14;;;;;;;36.10;28.75;;;17.80;99.90;;;;;;4896211;29;20040;-83
2021/09/15 02:19:39;;;;;;;36.65;29.15;;;17.80;99.90;;;;;;4881556;29;20115;-80
2021/09/15 02:22:05;;;;;;;41.42;30.50;;;17.80;99.90;;;;;;4895584;29;20052;-82
2021/09/15 02:24:31;;;;;;;35.05;28.88;;;17.70;99.90;;;;;;4881069;29;20048;-81
2021/09/15 02:26:57;;;;;;;40.15;29.02;;;17.60;99.90;;;;;;4900826;29;20432;-83
2021/09/15 02:29:22;;;;;;;39.80;29.02;;;17.60;99.90;;;;;;4916989;29;20052;-82
2021/09/15 02:31:48;;;;;;;35.33;29.23;;;17.60;99.90;;;;;;4902213;29;20111;-82
2021/09/15 02:34:15;;;;;;;38.53;31.08;;;17.60;99.90;;;;;;4901421;29;20071;-80
2021/09/15 02:36:40;;;;;;;38.25;30.42;;;17.50;99.90;;;;;;4882233;29;20139;-81
2021/09/15 02:39:06;;;;;;;39.15;30.73;;;17.40;99.90;;;;;;4915305;29;20060;-81
2021/09/15 02:41:32;;;;;;;37.72;29.98;;;17.40;99.90;;;;;;4885550;29;20117;-80
2021/09/15 02:43:58;;;;;;;39.75;29.85;;;17.50;99.90;;;;;;4901776;29;20100;-81
2021/09/15 02:46:24;;;;;;;43.42;31.95;;;17.40;99.90;;;;;;4901468;29;20527;-83
2021/09/15 02:48:49;;;;;;;44.60;31.80;;;17.30;99.90;;;;;;4902069;29;20040;-80
2021/09/15 02:51:15;;;;;;;41.75;32.25;;;17.30;99.90;;;;;;4900590;29;20056;-79
2021/09/15 02:53:41;;;;;;;43.25;33.28;;;17.30;99.90;;;;;;4885137;29;20122;-81
2021/09/15 02:56:06;;;;;;;44.42;33.35;;;17.20;99.90;;;;;;4886747;29;20048;-80
2021/09/15 02:58:34;;;;;;;50.33;34.40;;;17.30;99.90;;;;;;4901107;29;20039;-78
2021/09/15 03:01:00;;;;;;;43.40;33.80;;;17.30;99.90;;;;;;4898990;29;20065;-82
2021/09/15 03:03:26;;;;;;;46.67;34.38;;;17.10;99.90;;;;;;4901273;29;20075;-83
2021/09/15 03:05:52;;;;;;;48.22;35.90;;;17.20;99.90;;;;;;4900917;29;20052;-80
2021/09/15 03:08:17;;;;;;;54.15;37.70;;;17.20;99.90;;;;;;4888686;29;20060;-82
2021/09/15 03:10:43;;;;;;;41.15;33.35;;;17.10;99.90;;;;;;4900759;29;20063;-83
2021/09/15 03:13:09;;;;;;;51.35;34.85;;;17.10;99.90;;;;;;4900938;29;20123;-81
2021/09/15 03:15:34;;;;;;;44.63;34.67;;;17.20;99.90;;;;;;4901423;29;20119;-83
2021/09/15 03:18:00;;;;;;;45.47;35.75;;;17.10;99.90;;;;;;4902138;29;20439;-79
2021/09/15 03:20:26;;;;;;;54.85;37.85;;;17.10;99.90;;;;;;4884857;29;20047;-81
2021/09/15 03:22:52;;;;;;;53.20;38.28;;;17.00;99.90;;;;;;4901159;29;20130;-80
2021/09/15 03:25:17;;;;;;;52.72;39.28;;;17.00;99.90;;;;;;4918143;29;20036;-80
2021/09/15 03:27:43;;;;;;;51.45;37.58;;;17.00;99.90;;;;;;4917235;29;20044;-82
2021/09/15 03:30:09;;;;;;;51.25;38.35;;;17.00;99.90;;;;;;4885846;29;20044;-79
2021/09/15 03:32:35;;;;;;;52.08;39.72;;;16.90;99.90;;;;;;4901064;29;20038;-82
2021/09/15 03:35:01;;;;;;;56.40;40.47;;;16.90;99.90;;;;;;4900653;29;20044;-83
2021/09/15 03:37:26;;;;;;;51.03;39.20;;;16.80;99.90;;;;;;4899401;29;20036;-82
2021/09/15 03:39:52;;;;;;;53.75;39.38;;;16.90;99.90;;;;;;4898413;29;20064;-83
2021/09/15 03:42:18;;;;;;;61.13;40.80;;;16.90;99.90;;;;;;4899437;29;20103;-80
2021/09/15 03:44:44;;;;;;;51.75;38.38;;;16.80;99.90;;;;;;4891801;29;20032;-82
2021/09/15 03:47:10;;;;;;;53.42;38.47;;;16.80;99.90;;;;;;4898676;29;20039;-78
2021/09/15 03:49:36;;;;;;;61.47;41.05;;;16.80;99.90;;;;;;4897580;29;20068;-81
2021/09/15 03:52:01;;;;;;;56.42;40.35;;;16.80;99.90;;;;;;4896997;29;20067;-79
2021/09/15 03:54:27;;;;;;;60.85;41.97;;;16.70;99.90;;;;;;4898775;29;20108;-81
2021/09/15 03:56:53;;;;;;;58.00;40.83;;;16.70;99.90;;;;;;4898654;29;20092;-83
2021/09/15 03:59:18;;;;;;;59.28;41.63;;;16.70;99.90;;;;;;4896273;29;20043;-82
2021/09/15 04:01:44;;;;;;;54.80;40.90;;;16.70;99.90;;;;;;4882930;29;20257;-83
2021/09/15 04:04:10;;;;;;;57.42;40.28;;;16.70;99.90;;;;;;4881935;29;20044;-80
2021/09/15 04:06:36;;;;;;;57.15;41.40;;;16.60;99.90;;;;;;4897963;29;20047;-79
2021/09/15 04:09:02;;;;;;;59.97;40.33;;;16.60;99.90;;;;;;4897179;29;20079;-82
2021/09/15 04:11:27;;;;;;;63.70;42.80;;;16.70;99.90;;;;;;4898468;29;20052;-80
2021/09/15 04:13:54;;;;;;;58.58;42.17;;;16.60;99.90;;;;;;4897925;29;20191;-80
2021/09/15 04:16:20;;;;;;;56.72;41.95;;;16.60;99.90;;;;;;4915374;29;20087;-82
2021/09/15 04:18:46;;;;;;;58.65;42.70;;;16.60;99.90;;;;;;4881621;29;20044;-82
2021/09/15 04:21:11;;;;;;;62.17;43.50;;;16.60;99.90;;;;;;4881684;29;20052;-84
2021/09/15 04:31:32;;;;;;;65.80;45.63;;;16.50;99.90;;;;;;4898152;29;20066;-80
2021/09/15 04:34:00;;;;;;;73.45;48.08;;;16.60;99.90;;;;;;4897643;29;20438;-83
2021/09/15 04:36:26;;;;;;;72.85;47.50;;;16.60;99.90;;;;;;4897160;29;20052;-80
2021/09/15 04:38:53;;;;;;;83.35;50.45;;;16.50;99.90;;;;;;4896491;29;20040;-84
2021/09/15 04:41:19;;;;;;;64.10;45.05;;;16.50;99.90;;;;;;4882996;29;20107;-83
2021/09/15 04:43:45;;;;;;;86.68;51.65;;;16.50;99.90;;;;;;4896713;29;20143;-81
2021/09/15 04:46:11;;;;;;;63.25;45.50;;;16.50;99.90;;;;;;4897553;29;20048;-81
2021/09/15 04:48:38;;;;;;;80.97;51.10;;;16.40;99.90;;;;;;4896669;29;20410;-80
2021/09/15 04:51:05;;;;;;;67.93;45.45;;;16.40;99.90;;;;;;4896296;29;20342;-82
2021/09/15 04:53:31;;;;;;;68.78;48.05;;;16.40;99.90;;;;;;4895466;29;20040;-81
2021/09/15 04:55:56;;;;;;;65.18;45.33;;;16.40;99.90;;;;;;4912480;29;20380;-81
2021/09/15 04:58:22;;;;;;;69.30;47.88;;;16.40;99.90;;;;;;4896954;29;20040;-82
2021/09/15 05:00:48;;;;;;;74.95;47.78;;;16.40;99.90;;;;;;4881595;29;20115;-82
2021/09/15 05:03:14;;;;;;;68.45;45.33;;;16.50;99.90;;;;;;4913705;29;20123;-83
2021/09/15 05:05:39;;;;;;;68.85;46.15;;;16.40;99.90;;;;;;4912261;29;20051;-81
2021/09/15 05:08:05;;;;;;;94.05;54.00;;;16.40;99.90;;;;;;4896643;29;20675;-82
2021/09/15 05:10:31;;;;;;;72.10;49.45;;;16.40;99.90;;;;;;4913588;29;20081;-83
2021/09/15 05:12:57;;;;;;;74.10;50.40;;;16.30;99.90;;;;;;4879536;29;20103;-83
2021/09/15 05:15:25;;;;;;;85.07;52.65;;;16.40;99.90;;;;;;4913239;29;20055;-82
2021/09/15 05:17:51;;;;;;;95.60;56.88;;;16.40;99.90;;;;;;4895231;29;20059;-82
2021/09/15 05:20:18;;;;;;;64.03;47.35;;;16.40;99.90;;;;;;4897501;29;22225;-83
2021/09/15 05:22:52;;;;;;;71.97;48.83;;;16.40;99.90;;;;;;4897706;29;20048;-83
2021/09/15 05:25:19;;;;;;;74.47;50.22;;;16.40;99.90;;;;;;4898515;29;20103;-80
2021/09/15 05:27:45;;;;;;;69.15;49.72;;;16.40;99.90;;;;;;4895120;29;20112;-83
2021/09/15 05:30:12;;;;;;;76.07;50.33;;;16.40;99.90;;;;;;4897667;29;20052;-82
2021/09/15 05:32:38;;;;;;;81.57;50.95;;;16.40;99.90;;;;;;4896050;29;20070;-82
2021/09/15 05:35:06;;;;;;;87.80;54.67;;;16.50;99.90;;;;;;4909316;29;20047;-78
2021/09/15 05:37:32;;;;;;;84.88;54.38;;;16.50;99.90;;;;;;4913629;29;20051;-78
2021/09/15 05:39:59;;;;;;;83.50;53.25;;;16.50;99.90;;;;;;4895929;29;20043;-79
2021/09/15 05:42:26;;;;;;;83.88;52.55;;;16.50;99.90;;;;;;4895306;29;20394;-80
2021/09/15 05:44:51;;;;;;;87.45;53.80;;;16.60;99.90;;;;;;4895348;29;20084;-80
2021/09/15 05:47:17;;;;;;;82.88;54.08;;;16.60;99.90;;;;;;4881153;29;20048;-80
2021/09/15 05:49:43;;;;;;;85.68;54.92;;;16.70;99.90;;;;;;4895313;29;20062;-80
2021/09/15 05:52:08;;;;;;;49.55;36.65;;;16.70;99.90;;;;;;4893387;29;20040;-77
2021/09/15 05:54:34;;;;;;;29.73;20.60;;;16.80;99.90;;;;;;4895245;29;20554;-77
2021/09/15 05:56:59;;;;;;;27.10;20.95;;;17.00;99.90;;;;;;4893632;29;20051;-77
2021/09/15 05:59:25;;;;;;;30.27;24.27;;;17.30;99.90;;;;;;4893771;29;20381;-80
2021/09/15 06:01:51;;;;;;;50.92;35.33;;;17.40;99.90;;;;;;4894500;29;20048;-77
2021/09/15 06:04:17;;;;;;;31.95;25.52;;;17.50;99.90;;;;;;4894733;29;20115;-79
2021/09/15 06:06:42;;;;;;;32.58;26.27;;;17.70;99.90;;;;;;4895496;29;20135;-77
2021/09/15 06:09:08;;;;;;;34.13;27.00;;;17.80;99.90;;;;;;4894099;29;20076;-78
2021/09/15 06:11:34;;;;;;;47.40;35.50;;;17.90;99.90;;;;;;4895416;29;20048;-77
2021/09/15 06:13:59;;;;;;;35.55;27.40;;;18.10;99.90;;;;;;4894655;29;20122;-76
2021/09/15 06:16:25;;;;;;;45.00;34.97;;;18.10;99.90;;;;;;4896174;29;20408;-80
2021/09/15 06:18:51;;;;;;;52.60;39.40;;;18.10;99.90;;;;;;4878904;29;20075;-78
2021/09/15 06:21:18;;;;;;;56.85;39.53;;;18.20;99.90;;;;;;4895163;29;20199;-81
2021/09/15 06:23:44;;;;;;;37.38;29.00;;;18.20;99.90;;;;;;4894401;29;20071;-78
2021/09/15 06:26:11;;;;;;;44.47;32.83;;;18.30;99.90;;;;;;4881043;29;20138;-76
2021/09/15 06:28:36;;;;;;;37.17;29.13;;;18.30;99.90;;;;;;4893774;29;20036;-79
2021/09/15 06:31:04;;;;;;;74.43;37.40;;;18.40;99.90;;;;;;4894445;29;20063;-77
2021/09/15 06:33:30;;;;;;;57.35;39.90;;;18.50;99.90;;;;;;4893282;29;20507;-76
2021/09/15 06:35:56;;;;;;;49.88;35.22;;;18.50;99.90;;;;;;4894642;29;20052;-76
2021/09/15 06:38:22;;;;;;;38.72;31.45;;;18.50;99.90;;;;;;4895230;29;20127;-78
2021/09/15 06:40:47;;;;;;;40.72;30.85;;;18.50;99.90;;;;;;4894881;29;20067;-76
2021/09/15 06:43:13;;;;;;;42.30;31.40;;;18.60;99.90;;;;;;4878581;29;20125;-75
2021/09/15 06:45:39;;;;;;;36.97;30.40;;;18.60;99.90;;;;;;4893687;29;20071;-78
2021/09/15 06:48:04;;;;;;;47.45;35.75;;;18.70;99.90;;;;;;4894909;29;20059;-77
2021/09/15 06:50:30;;;;;;;58.85;37.05;;;18.70;99.90;;;;;;4894744;29;20052;-78
2021/09/15 06:52:56;;;;;;;37.95;30.15;;;18.60;99.90;;;;;;4896007;29;20052;-78
2021/09/15 06:55:25;;;;;;;71.40;45.80;;;18.70;99.90;;;;;;4879483;29;20407;-78
2021/09/15 06:57:54;;;;;;;75.78;48.10;;;18.70;99.90;;;;;;4879948;29;20060;-82
2021/09/15 07:00:20;;;;;;;76.05;50.28;;;18.50;99.90;;;;;;4912894;29;20081;-78
2021/09/15 07:02:46;;;;;;;72.00;47.10;;;18.50;99.90;;;;;;4880719;29;20056;-80
2021/09/15 07:05:12;;;;;;;81.72;49.08;;;18.40;99.90;;;;;;4896945;29;20058;-81
2021/09/15 07:07:38;;;;;;;81.90;49.28;;;18.40;99.90;;;;;;4897589;29;20056;-80
2021/09/15 07:10:05;;;;;;;78.88;49.13;;;18.30;99.90;;;;;;4882170;29;20052;-79
2021/09/15 07:12:31;;;;;;;79.70;50.03;;;18.30;99.90;;;;;;4897308;29;20067;-81
2021/09/15 07:14:56;;;;;;;73.80;47.15;;;18.30;99.90;;;;;;4884959;29;20161;-80
2021/09/15 07:17:22;;;;;;;77.35;48.53;;;18.30;99.90;;;;;;4900233;29;20056;-79
2021/09/15 07:19:48;;;;;;;74.00;47.92;;;18.30;99.90;;;;;;4885641;29;20071;-81
2021/09/15 07:22:13;;;;;;;76.68;48.45;;;18.30;99.90;;;;;;4899344;29;20060;-78
2021/09/15 07:24:39;;;;;;;72.35;46.58;;;18.30;99.90;;;;;;4900812;29;20111;-78
2021/09/15 07:27:05;;;;;;;77.75;47.15;;;18.30;99.90;;;;;;4900272;29;20082;-79
2021/09/15 07:29:30;;;;;;;78.85;48.25;;;18.40;99.90;;;;;;4900693;29;20056;-80
2021/09/15 07:31:56;;;;;;;70.75;46.08;;;18.40;99.90;;;;;;4899924;29;20055;-81
2021/09/15 07:34:22;;;;;;;75.82;47.45;;;18.40;99.90;;;;;;4916552;29;20543;-78
2021/09/15 07:36:48;;;;;;;81.15;48.47;;;18.50;99.90;;;;;;4900554;29;20043;-80
2021/09/15 07:39:13;;;;;;;80.93;49.00;;;18.50;99.90;;;;;;4902494;29;20107;-79
2021/09/15 07:41:39;;;;;;;79.28;48.35;;;18.50;99.90;;;;;;4884724;29;20078;-79
2021/09/15 07:44:06;;;;;;;83.60;49.35;;;18.60;99.90;;;;;;4897883;29;20160;-77
2021/09/15 07:46:33;;;;;;;72.30;47.67;;;18.70;99.90;;;;;;4899840;29;20052;-78
2021/09/15 07:48:58;;;;;;;74.43;46.28;;;18.80;99.90;;;;;;4883211;29;20115;-80
2021/09/15 07:51:24;;;;;;;74.95;47.20;;;18.80;99.90;;;;;;4882580;29;20052;-78
2021/09/15 07:53:50;;;;;;;77.15;48.00;;;18.80;99.90;;;;;;4891546;29;20056;-81
2021/09/15 07:56:16;;;;;;;72.38;46.70;;;18.80;99.90;;;;;;4897603;29;20425;-78
2021/09/15 07:58:41;;;;;;;77.15;48.00;;;18.80;99.90;;;;;;4913806;29;20039;-80
2021/09/15 08:01:07;;;;;;;80.57;48.10;;;18.80;99.90;;;;;;4898444;29;20119;-81
2021/09/15 08:03:32;;;;;;;70.43;44.88;;;18.80;99.90;;;;;;4875993;29;20060;-81
2021/09/15 08:06:00;;;;;;;76.05;46.90;;;18.80;99.90;;;;;;4898373;29;20134;-81
2021/09/15 08:08:25;;;;;;;59.08;39.63;;;18.90;99.90;;;;;;4879368;29;20143;-78
2021/09/15 08:10:51;;;;;;;62.13;41.47;;;19.10;99.90;;;;;;4882353;29;20143;-80
2021/09/15 08:13:20;;;;;;;78.03;48.10;;;19.30;99.90;;;;;;4898075;29;20032;-83
2021/09/15 08:15:47;;;;;;;71.22;40.75;;;19.40;99.90;;;;;;4879829;29;20062;-80
2021/09/15 08:18:12;;;;;;;60.50;40.42;;;19.60;99.90;;;;;;4895437;29;20040;-80
2021/09/15 08:20:39;;;;;;;51.45;33.33;;;19.70;99.90;;;;;;4899618;29;20058;-80
2021/09/15 08:23:04;;;;;;;48.38;33.67;;;19.90;99.90;;;;;;4897944;29;20107;-79
2021/09/15 08:25:30;;;;;;;60.30;39.20;;;20.20;99.90;;;;;;4898788;29;20056;-79
2021/09/15 08:27:56;;;;;;;70.22;45.28;;;20.40;99.90;;;;;;4897589;29;20123;-81
2021/09/15 08:30:22;;;;;;;57.45;37.22;;;20.60;99.90;;;;;;4898356;29;20424;-81
2021/09/15 08:32:48;;;;;;;64.13;40.53;;;20.60;99.90;;;;;;4898945;29;20116;-79
2021/09/15 08:35:14;;;;;;;54.55;37.45;;;20.70;99.90;;;;;;4899494;29;20056;-81
2021/09/15 08:37:40;;;;;;;52.72;37.05;;;20.80;99.90;;;;;;4890722;29;20047;-81
2021/09/15 08:40:08;;;;;;;62.05;40.40;;;20.80;99.90;;;;;;4898591;29;20142;-79
2021/09/15 08:42:34;;;;;;;64.57;43.38;;;20.80;99.90;;;;;;4895997;29;20056;-80
2021/09/15 08:45:03;;;;;;;62.53;41.78;;;20.90;99.90;;;;;;4897562;29;20063;-81
2021/09/15 08:47:32;;;;;;;61.03;42.88;;;20.90;99.90;;;;;;4896587;29;20040;-80
2021/09/15 08:49:58;;;;;;;71.40;42.83;;;21.10;99.90;;;;;;4885421;29;20388;-80
2021/09/15 08:52:24;;;;;;;59.15;39.72;;;21.10;99.90;;;;;;4882144;29;20084;-79
2021/09/15 08:54:50;;;;;;;59.20;39.70;;;21.20;99.90;;;;;;4897185;29;20075;-79
2021/09/15 08:57:15;;;;;;;54.97;37.13;;;21.20;99.90;;;;;;4897930;29;20627;-78
2021/09/15 08:59:41;;;;;;;55.10;38.63;;;21.20;99.90;;;;;;4897051;29;20060;-79
2021/09/15 09:02:09;;;;;;;60.00;38.97;;;21.20;99.90;;;;;;4896629;29;20188;-78
2021/09/15 09:04:54;;;;;;;55.40;37.00;;;21.10;99.90;;;;;;4885846;29;20674;-78
2021/09/15 09:07:22;;;;;;;59.67;39.05;;;21.20;99.90;;;;;;4894914;29;21837;-80
2021/09/15 09:09:49;;;;;;;60.05;40.58;;;21.20;99.90;;;;;;4895740;29;20138;-79
2021/09/15 09:12:16;;;;;;;65.03;43.08;;;21.10;99.90;;;;;;4895779;29;20642;-77
2021/09/15 09:14:41;;;;;;;51.28;35.78;;;20.90;99.90;;;;;;4892169;29;20041;-78
2021/09/15 09:17:07;;;;;;;60.35;40.15;;;21.00;99.90;;;;;;4879738;29;20110;-79
2021/09/15 09:19:33;;;;;;;65.00;43.67;;;20.90;99.90;;;;;;4897234;29;20500;-79
2021/09/15 09:22:06;;;;;;;65.15;42.58;;;20.90;99.90;;;;;;4880356;29;20044;-81
2021/09/15 09:24:32;;;;;;;66.32;43.83;;;20.80;99.90;;;;;;4896609;29;20044;-79
2021/09/15 09:27:00;;;;;;;73.80;44.60;;;20.80;99.90;;;;;;4895892;29;20048;-80
2021/09/15 09:29:33;;;;;;;68.03;44.17;;;20.70;99.90;;;;;;4894970;29;20413;-80
2021/09/15 09:32:15;;;;;;;62.35;42.25;;;20.80;99.90;;;;;;4894292;29;20057;-81
2021/09/15 09:34:50;;;;;;;67.82;44.97;;;20.80;99.90;;;;;;4881703;29;20044;-79
2021/09/15 09:37:21;;;;;;;77.68;45.17;;;20.80;99.90;;;;;;4917279;29;20138;-79
2021/09/15 09:39:55;;;;;;;67.03;41.65;;;20.80;99.90;;;;;;4899317;29;20171;-79
2021/09/15 09:42:24;;;;;;;72.53;44.97;;;20.90;99.90;;;;;;4897992;29;20040;-78
2021/09/15 09:45:05;;;;;;;66.82;44.03;;;20.80;99.90;;;;;;4897220;29;20044;-78
2021/09/15 09:47:32;;;;;;;55.00;37.35;;;20.70;99.90;;;;;;4880014;29;20139;-77
2021/09/15 09:50:04;;;;;;;69.75;44.22;;;20.80;99.90;;;;;;4892035;29;20066;-79
2021/09/15 09:52:30;;;;;;;67.57;43.22;;;20.90;99.90;;;;;;4876606;29;20056;-78
2021/09/15 09:55:00;;;;;;;64.30;40.42;;;21.00;99.90;;;;;;4897288;29;20063;-78
2021/09/15 09:57:30;;;;;;;71.03;46.55;;;21.10;99.90;;;;;;4882213;29;20697;-76
2021/09/15 09:59:56;;;;;;;69.90;45.80;;;21.30;99.90;;;;;;4897699;29;20154;-77
2021/09/15 10:02:22;;;;;;;71.57;44.05;;;21.40;99.90;;;;;;4872515;29;20060;-77
2021/09/15 10:04:48;;;;;;;63.80;39.92;;;21.60;99.90;;;;;;4878687;29;20057;-77
2021/09/15 10:07:15;;;;;;;59.47;39.42;;;21.60;99.90;;;;;;4890644;29;20052;-78
2021/09/15 10:09:43;;;;;;;56.50;39.15;;;21.60;99.90;;;;;;4876179;29;20075;-78
2021/09/15 10:12:11;;;;;;;52.13;36.95;;;21.50;99.90;;;;;;4888167;29;20127;-82
2021/09/15 10:14:38;;;;;;;54.83;38.00;;;21.50;99.90;;;;;;4891901;29;20048;-79
2021/09/15 10:17:14;;;;;;;52.90;35.15;;;21.50;99.90;;;;;;4890805;29;20089;-79
2021/09/15 10:19:43;;;;;;;50.33;35.47;;;21.70;99.90;;;;;;4892653;29;20458;-78
2021/09/15 10:22:08;;;;;;;50.58;35.22;;;21.80;99.90;;;;;;4891397;29;20060;-78
2021/09/15 10:24:56;;;;;;;49.35;32.75;;;21.80;99.90;;;;;;4874169;29;20079;-78
2021/09/15 10:27:27;;;;;;;46.22;32.05;;;21.80;99.90;;;;;;4886420;29;20070;-83
2021/09/15 10:30:13;;;;;;;45.25;30.42;;;21.80;99.90;;;;;;4890381;29;20049;-77
2021/09/15 10:32:46;;;;;;;44.90;30.67;;;21.90;99.90;;;;;;4892153;29;20040;-77
2021/09/15 10:35:13;;;;;;;44.92;30.55;;;21.90;99.90;;;;;;4893355;29;20131;-81
2021/09/15 10:37:38;;;;;;;44.65;31.23;;;21.80;99.90;;;;;;4884508;29;20044;-76
2021/09/15 10:40:08;;;;;;;50.35;33.15;;;21.90;99.90;;;;;;4878393;29;20454;-77
2021/09/15 10:42:34;;;;;;;48.35;31.33;;;22.00;99.90;;;;;;4893671;29;20068;-78
2021/09/15 10:45:17;;;;;;;52.97;34.05;;;22.20;99.90;;;;;;4893827;29;20049;-76
2021/09/15 10:47:45;;;;;;;49.08;33.83;;;22.10;99.90;;;;;;4896665;29;20053;-78
2021/09/15 10:50:27;;;;;;;45.40;31.33;;;22.00;99.90;;;;;;4882845;29;20493;-79
2021/09/15 10:53:08;;;;;;;46.25;32.22;;;21.90;99.90;;;;;;4897160;29;20072;-81
2021/09/15 10:55:37;;;;;;;45.33;32.28;;;21.70;99.90;;;;;;4894639;29;20048;-82
2021/09/15 10:58:19;;;;;;;46.22;32.90;;;21.50;99.90;;;;;;4893976;29;20032;-78
2021/09/15 11:01:07;;;;;;;43.88;32.10;;;21.50;99.90;;;;;;4896053;29;20084;-76
2021/09/15 11:03:50;;;;;;;51.38;33.13;;;21.50;99.90;;;;;;4892650;29;20123;-80
2021/09/15 11:06:17;;;;;;;43.60;30.92;;;21.50;99.90;;;;;;4895707;29;20056;-77
2021/09/15 11:08:50;;;;;;;43.75;30.52;;;21.60;99.90;;;;;;4878944;29;20111;-75
2021/09/15 11:11:19;;;;;;;42.42;26.98;;;21.80;99.90;;;;;;4896334;29;20063;-80
2021/09/15 11:13:46;;;;;;;38.33;26.63;;;22.00;99.90;;;;;;4877841;29;20044;-77
2021/09/15 11:16:41;;;;;;;38.47;24.90;;;22.10;99.90;;;;;;4894574;29;20053;-78
2021/09/15 11:19:11;;;;;;;38.85;25.83;;;22.20;99.90;;;;;;4867535;29;20499;-76
2021/09/15 11:21:59;;;;;;;33.28;23.85;;;22.40;99.90;;;;;;4893954;29;20067;-77
2021/09/15 11:24:30;;;;;;;38.80;26.73;;;22.50;99.90;;;;;;4895951;29;20578;-83
2021/09/15 11:27:04;;;;;;;34.38;25.13;;;22.50;99.90;;;;;;4894289;29;20040;-79
2021/09/15 11:29:43;;;;;;;44.25;26.95;;;22.50;99.90;;;;;;4895482;29;20036;-83
2021/09/15 11:32:20;;;;;;;38.30;26.42;;;22.50;99.90;;;;;;4894733;29;20143;-80
2021/09/15 11:34:48;;;;;;;42.13;27.35;;;22.60;99.90;;;;;;4908782;29;20155;-78
2021/09/15 11:37:18;;;;;;;36.40;25.65;;;22.70;99.90;;;;;;4895163;29;20115;-77
2021/09/15 11:39:55;;;;;;;38.55;26.13;;;22.70;99.90;;;;;;4881495;29;20471;-78
2021/09/15 11:42:26;;;;;;;34.25;24.27;;;22.60;99.90;;;;;;4892687;29;20064;-74
2021/09/15 11:44:52;;;;;;;33.88;25.05;;;22.50;99.90;;;;;;4897095;29;20394;-77
2021/09/15 11:47:26;;;;;;;39.80;27.13;;;22.50;99.90;;;;;;4892336;29;20112;-78
2021/09/15 11:49:51;;;;;;;35.43;25.33;;;22.60;99.90;;;;;;4894914;29;20048;-77
2021/09/15 11:52:17;;;;;;;36.15;25.20;;;22.50;99.90;;;;;;4895092;29;20056;-76
2021/09/15 11:54:48;;;;;;;34.05;23.85;;;22.40;99.90;;;;;;4895057;29;20413;-78
2021/09/15 11:57:15;;;;;;;30.17;22.08;;;22.40;99.90;;;;;;4890438;29;20560;-81
2021/09/15 11:59:41;;;;;;;27.23;21.55;;;22.50;99.90;;;;;;4893385;29;20160;-76
2021/09/15 12:02:10;;;;;;;39.80;22.77;;;22.60;99.90;;;;;;4894933;29;20155;-81
2021/09/15 12:04:39;;;;;;;31.08;22.02;;;22.50;99.90;;;;;;4895386;29;20091;-78
2021/09/15 12:07:05;;;;;;;34.00;20.80;;;22.70;99.90;;;;;;4881069;29;20065;-79
2021/09/15 12:09:35;;;;;;;33.42;23.77;;;22.80;99.90;;;;;;4877373;29;20052;-79
2021/09/15 12:12:06;;;;;;;32.58;23.08;;;23.00;99.90;;;;;;4894634;29;20112;-83
2021/09/15 12:14:35;;;;;;;30.13;21.77;;;23.30;99.90;;;;;;4895405;29;20111;-79
2021/09/15 12:17:05;;;;;;;32.85;22.92;;;23.40;99.90;;;;;;4896803;29;20049;-80
2021/09/15 12:19:31;;;;;;;31.77;23.58;;;23.30;99.90;;;;;;4892568;29;20037;-77
2021/09/15 12:21:57;;;;;;;34.10;24.05;;;23.20;99.90;;;;;;4891160;29;20485;-81
2021/09/15 12:24:25;;;;;;;31.63;22.70;;;23.10;99.90;;;;;;4877615;29;20060;-78
2021/09/15 12:26:52;;;;;;;29.73;23.13;;;23.00;99.90;;;;;;4892054;29;20531;-75
2021/09/15 12:29:20;;;;;;;32.78;23.33;;;22.90;99.90;;;;;;4891422;29;20067;-75
2021/09/15 12:32:00;;;;;;;30.88;22.45;;;23.10;99.90;;;;;;4874483;29;20052;-78
2021/09/15 12:34:35;;;;;;;32.45;22.23;;;23.40;99.90;;;;;;4889596;29;20052;-79
2021/09/15 12:37:16;;;;;;;30.80;21.92;;;23.50;99.90;;;;;;4892185;29;20201;-79